Radiosonde details



Informationen :

Serial : D26020159
Type : Graw DFM
Frequency : 403.210MHz
Launchsite : -
Nearest town : Wells, US (40.3km)

Altitude (Max) : 19422m at 2026-09-01 01:22:15
Speed (Max) : 102km/h at altitude 10976m

Average speed : 47km/h
Average ascent rate : 0m/s
Average descent rate : -8m/s
Ascent rate (Max) : -5.0m/s
Descent rate (Max): -13.8m/s

First frame :
KE7DJD at 2026-09-01 01:22:15 at altitude 19422m (OG: 19380m)
Last frame :
KE7DJD at 2026-09-01 01:51:22 at altitude 5741m (OG: 5699m)

Flighttime : 29m7s
Ascent time : 0s
Descent time : 29m7s
Uptime : -
Killtimer : -

Distance (Straight line distance): 22km

Distance (Route):


Frames : 82


Measurement :

Temperature : -3.0°C
Humidity : 0%
Pressure : 0hPa


Vertical profile (SkewT) :


Elevation profile :



Receiving stations :


Receiver Frames First received Last received
KE7DJD 82 2026-09-01 01:22:15 2026-09-01 01:51:22

Share per receiver :



All frames :


Receiver Date Latitude Longitude Direction Speed Altitude Climb Temperature Humidity Pressure Voltage Killtimer Uptime BKT XDATA
KE7DJD2026-09-01 01:51:2241.30580-115.37135113°20km/h5741m-5.0m/s-3.0°C0%0hPa0V00:00:0000:00:0000:00:00
KE7DJD2026-09-01 01:50:5541.30609-115.3728599°15km/h5877m-5.3m/s-3.9°C0%0hPa0V00:00:0000:00:0000:00:00
KE7DJD2026-09-01 01:50:3341.30623-115.3740395°15km/h6002m-5.4m/s-4.7°C0%0hPa0V00:00:0000:00:0000:00:00
KE7DJD2026-09-01 01:50:1141.30629-115.3750997°15km/h6124m-5.6m/s-5.8°C0%0hPa0V00:00:0000:00:0000:00:00
KE7DJD2026-09-01 01:49:5141.30636-115.3760997°13km/h6242m-6.0m/s-6.7°C0%0hPa0V00:00:0000:00:0000:00:00
KE7DJD2026-09-01 01:49:2841.30640-115.3770684°13km/h6380m-6.0m/s-7.8°C0%0hPa0V00:00:0000:00:0000:00:00
KE7DJD2026-09-01 01:48:5241.30586-115.3788959°18km/h6599m-6.1m/s-9.0°C0%0hPa0V00:00:0000:00:0000:00:00
KE7DJD2026-09-01 01:48:3041.30522-115.3800857°22km/h6727m-6.2m/s-9.8°C0%0hPa0V00:00:0000:00:0000:00:00
KE7DJD2026-09-01 01:48:1041.30445-115.3814953°29km/h6851m-5.8m/s-10.7°C0%0hPa0V00:00:0000:00:0000:00:00
KE7DJD2026-09-01 01:47:4941.30343-115.3829945°33km/h6976m-6.0m/s-11.6°C0%0hPa0V00:00:0000:00:0000:00:00
KE7DJD2026-09-01 01:47:2841.30223-115.3844744°33km/h7095m-6.3m/s-12.5°C0%0hPa0V00:00:0000:00:0000:00:00
KE7DJD2026-09-01 01:47:0741.30103-115.3861647°33km/h7226m-6.3m/s-13.7°C0%0hPa0V00:00:0000:00:0000:00:00
KE7DJD2026-09-01 01:46:4641.29982-115.3878245°33km/h7356m-6.4m/s-14.4°C0%0hPa0V00:00:0000:00:0000:00:00
KE7DJD2026-09-01 01:46:2641.29860-115.3893747°35km/h7481m-6.2m/s-15.3°C0%0hPa0V00:00:0000:00:0000:00:00
KE7DJD2026-09-01 01:46:0541.29728-115.3910842°35km/h7615m-6.4m/s-15.9°C0%0hPa0V00:00:0000:00:0000:00:00
KE7DJD2026-09-01 01:45:4541.29596-115.3929247°38km/h7726m-5.0m/s-16.8°C0%0hPa0V00:00:0000:00:0000:00:00
KE7DJD2026-09-01 01:45:2441.29447-115.3946941°38km/h7851m-6.8m/s-18.0°C0%0hPa0V00:00:0000:00:0000:00:00
KE7DJD2026-09-01 01:45:0441.29296-115.3962438°37km/h7981m-6.0m/s-19.3°C0%0hPa0V00:00:0000:00:0000:00:00
KE7DJD2026-09-01 01:44:4441.29144-115.3977038°35km/h8114m-6.4m/s-20.6°C0%0hPa0V00:00:0000:00:0000:00:00
KE7DJD2026-09-01 01:44:2341.28999-115.3990633°35km/h8246m-6.3m/s-21.3°C0%0hPa0V00:00:0000:00:0000:00:00
KE7DJD2026-09-01 01:44:0241.28841-115.4004036°38km/h8370m-6.2m/s-21.9°C0%0hPa0V00:00:0000:00:0000:00:00
KE7DJD2026-09-01 01:43:4241.28686-115.4022045°40km/h8496m-6.7m/s-23.1°C0%0hPa0V00:00:0000:00:0000:00:00
KE7DJD2026-09-01 01:43:0141.28385-115.4062348°42km/h8769m-6.6m/s-25.3°C0%0hPa0V00:00:0000:00:0000:00:00
KE7DJD2026-09-01 01:42:4141.28227-115.4083544°42km/h8911m-7.1m/s-26.6°C0%0hPa0V00:00:0000:00:0000:00:00
KE7DJD2026-09-01 01:42:2041.28065-115.4101536°42km/h9045m-6.7m/s-27.8°C0%0hPa0V00:00:0000:00:0000:00:00
KE7DJD2026-09-01 01:42:0041.27875-115.4118334°44km/h9182m-7.0m/s-29.0°C0%0hPa0V00:00:0000:00:0000:00:00
KE7DJD2026-09-01 01:41:3941.27678-115.4135633°46km/h9326m-6.7m/s-30.3°C0%0hPa0V00:00:0000:00:0000:00:00
KE7DJD2026-09-01 01:41:1841.27477-115.4152130°49km/h9460m-6.7m/s-31.2°C0%0hPa0V00:00:0000:00:0000:00:00
KE7DJD2026-09-01 01:40:5841.27242-115.4167425°53km/h9596m-6.5m/s-32.3°C0%0hPa0V00:00:0000:00:0000:00:00
KE7DJD2026-09-01 01:40:3741.26981-115.4181222°55km/h9732m-6.8m/s-33.1°C0%0hPa0V00:00:0000:00:0000:00:00
KE7DJD2026-09-01 01:40:1741.26711-115.4195322°57km/h9875m-6.9m/s-34.4°C0%0hPa0V00:00:0000:00:0000:00:00
KE7DJD2026-09-01 01:39:5641.26441-115.4208218°58km/h10013m-6.9m/s-35.5°C0%0hPa0V00:00:0000:00:0000:00:00
KE7DJD2026-09-01 01:39:3641.26140-115.4221218°60km/h10150m-6.8m/s-36.5°C0%0hPa0V00:00:0000:00:0000:00:00
KE7DJD2026-09-01 01:39:1541.25850-115.4233318°62km/h10291m-7.8m/s-37.8°C0%0hPa0V00:00:0000:00:0000:00:00
KE7DJD2026-09-01 01:38:5541.25522-115.4247419°69km/h10427m-6.3m/s-38.9°C0%0hPa0V00:00:0000:00:0000:00:00
KE7DJD2026-09-01 01:38:3441.25168-115.4261216°77km/h10560m-7.3m/s-39.9°C0%0hPa0V00:00:0000:00:0000:00:00
KE7DJD2026-09-01 01:38:1441.24745-115.4273513°84km/h10702m-6.9m/s-41.1°C0%0hPa0V00:00:0000:00:0000:00:00
KE7DJD2026-09-01 01:37:5341.24278-115.4282999km/h10836m-6.9m/s-41.9°C0%0hPa0V00:00:0000:00:0000:00:00
KE7DJD2026-09-01 01:37:3241.23747-115.4292210°100km/h10976m-6.5m/s-42.7°C0%0hPa0V00:00:0000:00:0000:00:00
KE7DJD2026-09-01 01:37:1141.23232-115.4305616°95km/h11120m-6.7m/s-43.6°C0%0hPa0V00:00:0000:00:0000:00:00
KE7DJD2026-09-01 01:36:5141.22787-115.4321917°88km/h11272m-7.7m/s-44.9°C0%0hPa0V00:00:0000:00:0000:00:00
KE7DJD2026-09-01 01:36:3041.22375-115.4341124°75km/h11434m-8.0m/s-45.0°C0%0hPa0V00:00:0000:00:0000:00:00
KE7DJD2026-09-01 01:36:1041.22058-115.4361331°64km/h11588m-7.8m/s-45.2°C0%0hPa0V00:00:0000:00:0000:00:00
KE7DJD2026-09-01 01:35:5041.21810-115.4382138°47km/h11757m-7.9m/s-45.8°C0%0hPa0V00:00:0000:00:0000:00:00
KE7DJD2026-09-01 01:35:2841.21645-115.4403247°42km/h11929m-7.9m/s-46.1°C0%0hPa0V00:00:0000:00:0000:00:00
KE7DJD2026-09-01 01:35:0341.21464-115.4425342°35km/h12129m-7.8m/s-46.1°C0%0hPa0V00:00:0000:00:0000:00:00
KE7DJD2026-09-01 01:34:4341.21309-115.4443746°44km/h12293m-6.4m/s-46.6°C0%0hPa0V00:00:0000:00:0000:00:00
KE7DJD2026-09-01 01:34:2241.21168-115.4466354°40km/h12435m-7.1m/s-46.9°C0%0hPa0V00:00:0000:00:0000:00:00
KE7DJD2026-09-01 01:33:4141.20810-115.4513248°51km/h12732m-7.2m/s-47.3°C0%0hPa0V00:00:0000:00:0000:00:00
KE7DJD2026-09-01 01:33:2141.20622-115.4541248°51km/h12886m-7.4m/s-47.7°C0%0hPa0V00:00:0000:00:0000:00:00
KE7DJD2026-09-01 01:32:5941.20395-115.4565637°58km/h13044m-7.6m/s-47.8°C0%0hPa0V00:00:0000:00:0000:00:00
KE7DJD2026-09-01 01:32:3941.20140-115.4591541°68km/h13198m-7.5m/s-48.5°C0%0hPa0V00:00:0000:00:0000:00:00
KE7DJD2026-09-01 01:32:1841.19878-115.4621644°60km/h13362m-7.9m/s-49.0°C0%0hPa0V00:00:0000:00:0000:00:00
KE7DJD2026-09-01 01:31:5841.19669-115.4652251°62km/h13522m-8.0m/s-48.7°C0%0hPa0V00:00:0000:00:0000:00:00
KE7DJD2026-09-01 01:31:3841.19448-115.4686254°66km/h13693m-8.4m/s-48.8°C0%0hPa0V00:00:0000:00:0000:00:00
KE7DJD2026-09-01 01:31:1741.19240-115.4720452°62km/h13859m-8.1m/s-47.8°C0%0hPa0V00:00:0000:00:0000:00:00
KE7DJD2026-09-01 01:30:5741.19050-115.4755151°58km/h14032m-8.4m/s-48.5°C0%0hPa0V00:00:0000:00:0000:00:00
KE7DJD2026-09-01 01:30:2941.18781-115.4801258°58km/h14270m-8.4m/s-48.3°C0%0hPa0V00:00:0000:00:0000:00:00
KE7DJD2026-09-01 01:30:0941.18624-115.4834260°58km/h14442m-8.7m/s-48.8°C0%0hPa0V00:00:0000:00:0000:00:00
KE7DJD2026-09-01 01:29:4841.18455-115.4863643°51km/h14624m-8.6m/s-49.0°C0%0hPa0V00:00:0000:00:0000:00:00
KE7DJD2026-09-01 01:29:2741.18248-115.4886644°51km/h14799m-8.8m/s-48.9°C0%0hPa0V00:00:0000:00:0000:00:00
KE7DJD2026-09-01 01:29:0741.18045-115.4909443°51km/h14985m-9.1m/s-49.2°C0%0hPa0V00:00:0000:00:0000:00:00
KE7DJD2026-09-01 01:28:4641.17849-115.4934446°51km/h15165m-9.2m/s-49.6°C0%0hPa0V00:00:0000:00:0000:00:00
KE7DJD2026-09-01 01:28:2641.17645-115.4958742°49km/h15359m-9.5m/s-50.2°C0%0hPa0V00:00:0000:00:0000:00:00
KE7DJD2026-09-01 01:28:0541.17455-115.4982045°53km/h15548m-9.5m/s-51.0°C0%0hPa0V00:00:0000:00:0000:00:00
KE7DJD2026-09-01 01:27:4541.17252-115.5009047°55km/h15747m-9.6m/s-51.4°C0%0hPa0V00:00:0000:00:0000:00:00
KE7DJD2026-09-01 01:27:2441.17056-115.5035244°55km/h15948m-9.8m/s-50.8°C0%0hPa0V00:00:0000:00:0000:00:00
KE7DJD2026-09-01 01:27:0341.16860-115.5058738°47km/h16144m-9.7m/s-51.1°C0%0hPa0V00:00:0000:00:0000:00:00
KE7DJD2026-09-01 01:26:4241.16671-115.5079639°46km/h16356m-10.2m/s-51.4°C0%0hPa0V00:00:0000:00:0000:00:00
KE7DJD2026-09-01 01:26:2241.16503-115.5100949°47km/h16562m-10.4m/s-52.2°C0%0hPa0V00:00:0000:00:0000:00:00
KE7DJD2026-09-01 01:26:0241.16342-115.5124247°44km/h16780m-10.5m/s-52.4°C0%0hPa0V00:00:0000:00:0000:00:00
KE7DJD2026-09-01 01:25:4141.16168-115.5141841°42km/h16992m-10.6m/s-52.3°C0%0hPa0V00:00:0000:00:0000:00:00
KE7DJD2026-09-01 01:25:2141.15991-115.5159725°44km/h17217m-11.2m/s-52.3°C0%0hPa0V00:00:0000:00:0000:00:00
KE7DJD2026-09-01 01:25:0041.15794-115.5176549°53km/h17437m-10.9m/s-52.6°C0%0hPa0V00:00:0000:00:0000:00:00
KE7DJD2026-09-01 01:24:4041.15608-115.5203552°53km/h17666m-11.0m/s-51.6°C0%0hPa0V00:00:0000:00:0000:00:00
KE7DJD2026-09-01 01:24:1941.15445-115.5233859°49km/h17898m-10.9m/s-52.2°C0%0hPa0V00:00:0000:00:0000:00:00
KE7DJD2026-09-01 01:23:5941.15325-115.5257952°40km/h18122m-11.5m/s-52.0°C0%0hPa0V00:00:0000:00:0000:00:00
KE7DJD2026-09-01 01:23:3841.15212-115.5277553°40km/h18354m-11.8m/s-52.7°C0%0hPa0V00:00:0000:00:0000:00:00
KE7DJD2026-09-01 01:23:1841.15128-115.5304079°29km/h18606m-12.3m/s-51.9°C0%0hPa0V00:00:0000:00:0000:00:00
KE7DJD2026-09-01 01:22:5741.15092-115.5319170°20km/h18857m-13.1m/s-51.2°C0%0hPa0V00:00:0000:00:0000:00:00
KE7DJD2026-09-01 01:22:3741.14977-115.5328916°24km/h19138m-13.2m/s-51.1°C0%0hPa0V00:00:0000:00:0000:00:00
KE7DJD2026-09-01 01:22:1541.14863-115.5329320km/h19422m-13.8m/s-52.2°C0%0hPa0V00:00:0000:00:0000:00:00


GPX KML Map

© wettersonde.net (DO2JMG) - 2026  -  -